Aviation Digital Data Service (ADDS)

Output produced by METARs form (2211 UTC 01 October 2022)
found at http://www.aviationweather.gov/metar/data/
 
METAR text: KRNH 012155Z AUTO 08003KT 10SM OVC090 16/10 A3029 RMK AO2 T01560095
Conditions at: KRNH (NEW RICHMOND MUN, WI, US) observed 2155 UTC 01 October 2022
Temperature: 15.6°C (60°F)
Dewpoint: 9.5°C (49°F) [RH = 67%]
Pressure (altimeter): 30.29 inches Hg (1025.8 mb)
Winds: from the E (80 degrees) at 3 MPH (3 knots; 1.5 m/s)
Visibility: 10 or more miles (16+ km)
Ceiling: 9000 feet AGL
Clouds: overcast cloud deck at 9000 feet AGL
Weather: automated observation with no human augmentation;
there may or may not be significant weather present at this time

METAR text: KRNH 012135Z AUTO 00000KT 10SM -RA OVC100 16/10 A3029 RMK AO2 T01590099
Conditions at: KRNH (NEW RICHMOND MUN, WI, US) observed 2135 UTC 01 October 2022
Temperature: 15.9°C (61°F)
Dewpoint: 9.9°C (50°F) [RH = 68%]
Pressure (altimeter): 30.29 inches Hg (1025.8 mb)
Winds: calm
Visibility: 10 or more miles (16+ km)
Ceiling: 10000 feet AGL
Clouds: overcast cloud deck at 10000 feet AGL
Weather: -RA  (light rain)

METAR text: KRNH 012115Z AUTO 00000KT 10SM -RA BKN100 16/10 A3029 RMK AO2 T01620096
Conditions at: KRNH (NEW RICHMOND MUN, WI, US) observed 2115 UTC 01 October 2022
Temperature: 16.2°C (61°F)
Dewpoint: 9.6°C (49°F) [RH = 65%]
Pressure (altimeter): 30.29 inches Hg (1025.8 mb)
Winds: calm
Visibility: 10 or more miles (16+ km)
Ceiling: 10000 feet AGL
Clouds: broken clouds at 10000 feet AGL
Weather: -RA  (light rain)

Forecast for: KRNH (NEW RICHMOND MUN, WI, US)
Text: KRNH 011720Z 0118/0218 10005KT P6SM BKN120
Forecast period: 1800 UTC 01 October 2022 to 1500 UTC 02 October 2022
Forecast type: FROM: standard forecast or significant change
Winds: from the E (100 degrees) at 6 MPH (5 knots; 2.6 m/s)
Visibility: 6 or more miles (10+ km)
Ceiling: 12000 feet AGL
Clouds: broken clouds at 12000 feet AGL
Weather: no significant weather forecast for this period
Text: FM021500 14006KT P6SM BKN250
Forecast period: 1500 to 1800 UTC 02 October 2022
Forecast type: FROM: standard forecast or significant change
Winds: from the SE (140 degrees) at 7 MPH (6 knots; 3.1 m/s)
Visibility: 6 or more miles (10+ km)
Ceiling: 25000 feet AGL
Clouds: broken clouds at 25000 feet AGL
Weather: no significant weather forecast for this period